Thunder radar more information blitzortung!


Radar de pluja more information rain snow radar


Visita la nostra xarxa de llocs de meteo:

Template documentation
and downloads

And another site



No particular awareness of the weather is required.    There are no Weather-warnings

Pagina Historial Weather Underground text

Diari Resum Desembre 20, 2017 Unitats:  Mètric    Imperial   Tant
« Previous Dia
SegĂźent Dia »
Diari Setmana Mensual Anual Personalitzada
  Maxima: Minima: Media:
Temperatura: -17.8 °C -17.5 °C -14 °C
Punt de rosada: -17.8 °C -19.7 °C -17.8 °C
Humitat: Humidity % 55 % 62 %
Wind Speed: 0 km/h 0 km/h 5.3 km/h
RĂ fegues de vent: 0 km/h - -
Vent:- - SE
Pression baro: 0 hPa 34841.9 hPa -
Precipitacions: 0 mm    
Historical Graphs
 
 
Dades de taula per Desembre 20, 2017
Temps Temperatura Punt de rosada Pression baro Vent Wind Speed RĂ fegues de vent Humitat Rainfall Rate (Hourly)
-17.8 °C -17.8 °C 0 hPa Calm     Humidity % 0 mm
00:00 -17.1 °C -19.3 °C 34899.5 hPa ESE 2.6 km/h 7.7 km/h 75 % 0 mm
00:01 -14.4 °C -17.9 °C 34946.9 hPa Calm     64 % 0 mm
00:10 -17.2 °C -19.5 °C 34899.5 hPa Calm   5.1 km/h 74 % 0 mm
00:20 -17.2 °C -19.5 °C 34899.5 hPa Calm   2.6 km/h 74 % 0 mm
00:40 -17.3 °C -19.6 °C 34899.5 hPa Calm     74 % 0 mm
00:50 -17.2 °C -19.4 °C 34899.5 hPa NW 2.6 km/h 5.1 km/h 75 % 0 mm
01:00 -17.3 °C -19.6 °C 34899.5 hPa Calm     74 % 0 mm
01:10 -17.4 °C -19.7 °C 34875.8 hPa Calm   2.6 km/h 74 % 0 mm
01:20 -17.4 °C -19.6 °C 34899.5 hPa Calm     75 % 0 mm
01:30 -17.4 °C -19.6 °C 34899.5 hPa West 2.6 km/h 5.1 km/h 75 % 0 mm
01:40 -17.4 °C -19.6 °C 34899.5 hPa Calm   2.6 km/h 75 % 0 mm
01:50 -17.4 °C -19.6 °C 34899.5 hPa Calm     75 % 0 mm
02:00 -17.5 °C -19.7 °C 34899.5 hPa Calm   5.1 km/h 75 % 0 mm
02:10 -17.5 °C -19.7 °C 34899.5 hPa SSW 2.6 km/h 2.6 km/h 75 % 0 mm
02:20 -17.5 °C -19.7 °C 34899.5 hPa Calm   5.1 km/h 75 % 0 mm
02:30 -17.5 °C -19.7 °C 34899.5 hPa WNW 2.6 km/h 5.1 km/h 75 % 0 mm
02:40 -17.5 °C -19.7 °C 34899.5 hPa Calm   5.1 km/h 75 % 0 mm
02:50 -17.4 °C -19.6 °C 34899.5 hPa Calm   5.1 km/h 75 % 0 mm
03:00 -17.2 °C -19.3 °C 34899.5 hPa SSW 5.1 km/h 7.7 km/h 76 % 0 mm
03:10 -17 °C -19.1 °C 34946.9 hPa East 5.1 km/h 5.1 km/h 76 % 0 mm
03:20 -16.8 °C -18.9 °C 34899.5 hPa ENE 2.6 km/h 5.1 km/h 76 % 0 mm
03:30 -16.7 °C -18.8 °C 34899.5 hPa WSW 2.6 km/h 5.1 km/h 75 % 0 mm
03:40 -16.4 °C -18.6 °C 34899.5 hPa NNW 2.6 km/h 5.1 km/h 75 % 0 mm
03:50 -16.2 °C -18.6 °C 34899.5 hPa NNE 2.6 km/h 2.6 km/h 74 % 0 mm
04:00 -16 °C -18.4 °C 34899.5 hPa North 2.6 km/h 7.7 km/h 73 % 0 mm
04:10 -15.7 °C -18.3 °C 34899.5 hPa Calm   5.1 km/h 72 % 0 mm
04:20 -15.4 °C -18.1 °C 34899.5 hPa West 2.6 km/h 5.1 km/h 71 % 0 mm
10:40 -15.3 °C -18.2 °C 34899.5 hPa NW 3.1 km/h   69 % 0 mm
10:41 -15.3 °C -18.2 °C 34899.5 hPa NW 3.1 km/h   69 % 0 mm
10:46 -15.2 °C -18.2 °C 34899.5 hPa Calm     68 % 0 mm
10:51 -15.1 °C -18.1 °C 34899.5 hPa ENE 6 km/h   68 % 0 mm
10:53 -15.1 °C -18.1 °C 34899.5 hPa ENE 6 km/h 6 km/h 68 % 0 mm
10:55 -15 °C -18 °C 34946.9 hPa East 5.1 km/h 5.1 km/h 68 % 0 mm
10:58 -15 °C -18.1 °C 34946.9 hPa ENE 9 km/h 9 km/h 67 % 0 mm
11:01 -14.9 °C -18.1 °C 34946.9 hPa ENE 6 km/h 6 km/h 67 % 0 mm
11:06 -14.8 °C -17.9 °C 34946.9 hPa East 5.6 km/h   67 % 0 mm
11:07 -14.9 °C -18 °C 34946.9 hPa ESE 6 km/h 6 km/h 67 % 0 mm
11:12 -14.8 °C -17.9 °C 34946.9 hPa ENE 3.1 km/h 3.7 km/h 67 % 0 mm
11:15 -14.7 °C -17.9 °C 34946.9 hPa ENE 4.2 km/h 4.2 km/h 67 % 0 mm
11:17 -14.7 °C -17.8 °C 34946.9 hPa NNE 6 km/h 6 km/h 67 % 0 mm
11:21 -14.7 °C -17.9 °C 34946.9 hPa NNE 6.3 km/h 6.3 km/h 66 % 0 mm
11:26 -14.7 °C -17.9 °C 34899.5 hPa ENE 9 km/h 9 km/h 66 % 0 mm
11:27 -14.7 °C -17.9 °C 34899.5 hPa ENE 9 km/h 9 km/h 66 % 0 mm
11:32 -14.8 °C -18.2 °C 34899.5 hPa NNE 11.9 km/h 11.9 km/h 65 % 0 mm
11:33 -14.7 °C -18.1 °C 34899.5 hPa NE 9 km/h 9 km/h 65 % 0 mm
11:38 -14.6 °C -17.9 °C 34899.5 hPa ENE 6 km/h 6.3 km/h 65 % 0 mm
11:39 -14.6 °C -17.9 °C 34899.5 hPa East 7.6 km/h 7.6 km/h 65 % 0 mm
11:44 -14.3 °C -17.8 °C 34899.5 hPa South 6 km/h   64 % 0 mm
11:45 -14.2 °C -17.7 °C 34899.5 hPa South 3.1 km/h   64 % 0 mm
11:46 -14.2 °C -17.8 °C 34899.5 hPa ESE 9 km/h 9 km/h 63 % 0 mm
11:51 -14.2 °C -17.8 °C 34899.5 hPa ENE 6.3 km/h 6.3 km/h 63 % 0 mm
11:52 -14.2 °C -17.8 °C 34899.5 hPa ENE 6.3 km/h 6.3 km/h 63 % 0 mm
11:53 -14.1 °C -17.7 °C 34899.5 hPa ENE 7.6 km/h 7.6 km/h 63 % 0 mm
11:58 -14 °C -17.7 °C 34899.5 hPa ESE 9 km/h 9 km/h 63 % 0 mm
12:01 -13.9 °C -17.7 °C 34899.5 hPa SE 9.3 km/h 9.3 km/h 62 % 0 mm
12:03 -13.9 °C -17.7 °C 34899.5 hPa ENE 9 km/h 9 km/h 62 % 0 mm
12:07 -13.9 °C -17.7 °C 34899.5 hPa ENE 11.9 km/h 11.9 km/h 62 % 0 mm
12:09 -13.9 °C -17.7 °C 34899.5 hPa NNE 9 km/h 9 km/h 62 % 0 mm
12:14 -13.9 °C -17.7 °C 34899.5 hPa North 11.9 km/h 11.9 km/h 62 % 0 mm
12:19 -13.9 °C -17.7 °C 34899.5 hPa SSE 15 km/h 15 km/h 62 % 0 mm
12:20 -13.9 °C -17.7 °C 34899.5 hPa SSE 15 km/h 15 km/h 62 % 0 mm
12:24 -13.8 °C -17.6 °C 34899.5 hPa NNE 11.9 km/h 11.9 km/h 62 % 0 mm
12:29 -13.7 °C -17.4 °C 34899.5 hPa NE 9 km/h 9 km/h 62 % 0 mm
12:30 -13.6 °C -17.3 °C 34899.5 hPa ENE 6.3 km/h 6.3 km/h 62 % 0 mm
12:31 -13.6 °C -17.3 °C 34899.5 hPa NE 8 km/h 8 km/h 62 % 0 mm
12:35 -13.6 °C -17.3 °C 34899.5 hPa NNE 9.8 km/h 9.8 km/h 62 % 0 mm
12:40 -13.6 °C -17.4 °C 34875.8 hPa ENE 6 km/h 6 km/h 61 % 0 mm
12:44 -13.6 °C -17.4 °C 34875.8 hPa NNE 11.9 km/h 11.9 km/h 61 % 0 mm
12:46 -13.4 °C -17.4 °C 34875.8 hPa NE 7.6 km/h 7.6 km/h 61 % 0 mm
12:50 -13.4 °C -17.5 °C 34875.8 hPa NE 15 km/h 15 km/h 60 % 0 mm
12:52 -13.6 °C -17.6 °C 34875.8 hPa NNE 17.9 km/h 17.9 km/h 60 % 0 mm
12:57 -13.4 °C -17.5 °C 34875.8 hPa South 9 km/h 9 km/h 60 % 0 mm
12:58 -13.4 °C -17.4 °C 34875.8 hPa NE 9 km/h 9 km/h 60 % 0 mm
13:03 -13.4 °C -17.5 °C 34875.8 hPa NNE 15 km/h 15 km/h 60 % 0 mm
13:04 -13.4 °C -17.5 °C 34875.8 hPa NNE 10.3 km/h 11.1 km/h 60 % 0 mm
13:09 -13.4 °C -17.4 °C 34875.8 hPa NNE 15.3 km/h 15.3 km/h 60 % 0 mm
13:10 -13.4 °C -17.4 °C 34875.8 hPa NE 15 km/h 15 km/h 60 % 0 mm
13:15 -13.3 °C -17.3 °C 34875.8 hPa North 11.9 km/h 11.9 km/h 60 % 0 mm
13:16 -13.3 °C -17.3 °C 34875.8 hPa NE 11.9 km/h 11.9 km/h 60 % 0 mm
13:21 -13.3 °C -17.6 °C 34875.8 hPa NNW 17.9 km/h 17.9 km/h 59 % 0 mm
13:22 -13.3 °C -17.6 °C 34875.8 hPa NE 17.9 km/h 17.9 km/h 59 % 0 mm
13:27 -13.3 °C -17.6 °C 34875.8 hPa ENE 20.9 km/h 20.9 km/h 59 % 0 mm
13:28 -13.3 °C -17.6 °C 34875.8 hPa NNE 11.9 km/h 11.9 km/h 59 % 0 mm
13:33 -13.3 °C -17.4 °C 34875.8 hPa NE 15 km/h 15 km/h 59 % 0 mm
13:38 -13.2 °C -17.4 °C 34875.8 hPa East 9 km/h 9 km/h 59 % 0 mm
13:43 -13.1 °C -17.3 °C 34841.9 hPa East 6.3 km/h 6.3 km/h 59 % 0 mm
13:44 -13.1 °C -17.3 °C 34841.9 hPa NNE 9 km/h 9 km/h 59 % 0 mm
13:49 -13.1 °C -17.4 °C 34841.9 hPa NNE 11.9 km/h 11.9 km/h 58 % 0 mm
13:50 -13.1 °C -17.4 °C 34841.9 hPa North 9 km/h 9 km/h 58 % 0 mm
13:55 -13.1 °C -17.3 °C 34841.9 hPa NNW 6 km/h 6 km/h 59 % 0 mm
13:56 -13.1 °C -17.3 °C 34841.9 hPa East 6 km/h 6 km/h 59 % 0 mm
14:01 -12.9 °C -17.3 °C 34841.9 hPa NNE 9 km/h 9 km/h 58 % 0 mm
14:02 -12.9 °C -17.3 °C 34841.9 hPa ENE 6.8 km/h 6.8 km/h 58 % 0 mm
14:07 -12.9 °C -17.3 °C 34841.9 hPa NNW 6 km/h 6.8 km/h 58 % 0 mm
14:12 -12.9 °C -17.2 °C 34875.8 hPa ENE 11.9 km/h 11.9 km/h 58 % 0 mm
14:13 -12.9 °C -17.2 °C 34875.8 hPa ENE 11.9 km/h 11.9 km/h 58 % 0 mm
14:18 -12.9 °C -17.3 °C 34875.8 hPa NNE 11.9 km/h 11.9 km/h 58 % 0 mm
14:23 -12.9 °C -17.2 °C 34875.8 hPa ENE 9 km/h 9 km/h 58 % 0 mm
14:24 -12.9 °C -17.4 °C 34875.8 hPa NE 9 km/h 9.3 km/h 57 % 0 mm
14:26 -12.8 °C -17.3 °C 34875.8 hPa NNE 9 km/h 9 km/h 57 % 0 mm
14:29 -12.9 °C -17.4 °C 34875.8 hPa NE 15 km/h 15 km/h 57 % 0 mm
14:33 -12.8 °C -17.3 °C 34875.8 hPa NNE 11.1 km/h 11.1 km/h 57 % 0 mm
14:35 -12.8 °C -17.3 °C 34875.8 hPa NNE 12.7 km/h 12.7 km/h 57 % 0 mm
14:38 -12.8 °C -17.3 °C 34875.8 hPa NE 9 km/h 9 km/h 57 % 0 mm
14:40 -12.8 °C -17.3 °C 34875.8 hPa ENE 9 km/h 9 km/h 57 % 0 mm
14:45 -12.8 °C -17.3 °C 34875.8 hPa NNE 6 km/h 6 km/h 57 % 0 mm
14:46 -12.8 °C -17.3 °C 34875.8 hPa North 9.8 km/h 9.8 km/h 57 % 0 mm
14:50 -12.8 °C -17.3 °C 34875.8 hPa NE 9 km/h 9 km/h 57 % 0 mm
14:52 -12.8 °C -17.3 °C 34875.8 hPa ENE 15.6 km/h 15.6 km/h 57 % 0 mm
14:55 -12.8 °C -17.3 °C 34875.8 hPa NNE 14 km/h 14 km/h 57 % 0 mm
14:58 -12.8 °C -17.3 °C 34875.8 hPa NE 11.9 km/h 11.9 km/h 57 % 0 mm
15:03 -12.7 °C -17.2 °C 34875.8 hPa NE 9 km/h 9 km/h 57 % 0 mm
15:04 -12.7 °C -17.2 °C 34875.8 hPa NNE 14 km/h 14 km/h 57 % 0 mm
15:05 -12.8 °C -17.3 °C 34875.8 hPa NNE 15 km/h 15 km/h 57 % 0 mm
15:10 -12.7 °C -17.3 °C 34875.8 hPa NNE 11.9 km/h 11.9 km/h 56 % 0 mm
15:12 -12.7 °C -17.3 °C 34875.8 hPa WNW 11.9 km/h 11.9 km/h 56 % 0 mm
15:17 -12.7 °C -17.3 °C 34875.8 hPa ENE 11.9 km/h 11.9 km/h 56 % 0 mm
15:18 -12.7 °C -17.3 °C 34875.8 hPa NE 6 km/h 6 km/h 56 % 0 mm
15:20 -12.6 °C -17.3 °C 34875.8 hPa NNE 6 km/h 6 km/h 56 % 0 mm
15:24 -12.6 °C -17.3 °C 34875.8 hPa NNW 6.8 km/h 6.8 km/h 56 % 0 mm
15:29 -12.6 °C -17.2 °C 34875.8 hPa NNE 6 km/h 6 km/h 56 % 0 mm
15:31 -12.6 °C -17.2 °C 34875.8 hPa NE 11.9 km/h 11.9 km/h 56 % 0 mm
15:33 -12.6 °C -17.2 °C 34875.8 hPa NNE 11.9 km/h 11.9 km/h 56 % 0 mm
15:36 -12.5 °C -17.1 °C 34875.8 hPa ENE 6 km/h 6 km/h 56 % 0 mm
15:37 -12.5 °C -17.1 °C 34875.8 hPa ENE 6 km/h 6 km/h 56 % 0 mm
15:38 -12.4 °C -17.1 °C 34875.8 hPa NNW 5.1 km/h   56 % 0 mm
15:43 -12.4 °C -17.1 °C 34875.8 hPa NE 6.3 km/h 6.3 km/h 56 % 0 mm
15:48 -12.4 °C -17.1 °C 34875.8 hPa ENE 9 km/h 9 km/h 56 % 0 mm
15:53 -12.4 °C -17.1 °C 34875.8 hPa NNE 9 km/h 9 km/h 56 % 0 mm
15:55 -12.4 °C -17.2 °C 34875.8 hPa ENE 9 km/h 9 km/h 55 % 0 mm
16:00 -12.3 °C -17.1 °C 34875.8 hPa NE 11.9 km/h 11.9 km/h 55 % 0 mm
16:01 -12.4 °C -17.2 °C 34875.8 hPa NNW 6.3 km/h 6.3 km/h 55 % 0 mm
16:06 -12.4 °C -17.2 °C 34875.8 hPa NNE 9 km/h 9 km/h 55 % 0 mm
16:08 -12.3 °C -17.1 °C 34875.8 hPa North 6.3 km/h 6.3 km/h 55 % 0 mm
16:13 -12.3 °C -17.1 °C 34875.8 hPa North 9 km/h 9 km/h 55 % 0 mm
16:14 -12.3 °C -17.1 °C 34875.8 hPa NNE 9 km/h 9 km/h 55 % 0 mm
16:19 -12.4 °C -17.2 °C 34875.8 hPa ENE 3.7 km/h 4.2 km/h 55 % 0 mm
16:20 -12.4 °C -17.2 °C 34875.8 hPa ENE 3.7 km/h 4.2 km/h 55 % 0 mm
16:25 -12.4 °C -17.2 °C 34875.8 hPa NNE 9.3 km/h 9.3 km/h 55 % 0 mm
16:26 -12.4 °C -17.2 °C 34875.8 hPa NE 9 km/h 9 km/h 55 % 0 mm
16:27 -12.4 °C -17.2 °C 34875.8 hPa NE 9 km/h 9 km/h 55 % 0 mm
16:31 -12.5 °C -17.3 °C 34875.8 hPa ENE 9 km/h 9 km/h 55 % 0 mm
16:36 -12.6 °C -17.3 °C 34875.8 hPa NNE 11.1 km/h 11.1 km/h 55 % 0 mm
16:37 -12.6 °C -17.3 °C 34875.8 hPa NE 11.9 km/h 11.9 km/h 55 % 0 mm
16:42 -12.6 °C -17.4 °C 34875.8 hPa ENE 9 km/h 9 km/h 55 % 0 mm
16:43 -12.6 °C -17.4 °C 34875.8 hPa NNE 6.3 km/h 6.3 km/h 55 % 0 mm
16:48 -12.7 °C -17.5 °C 34875.8 hPa North 11.9 km/h 11.9 km/h 55 % 0 mm
16:53 -12.8 °C -17.6 °C 34875.8 hPa NNE 9 km/h 9 km/h 55 % 0 mm
16:56 -12.8 °C -17.6 °C 34875.8 hPa NNE 6 km/h 6.8 km/h 55 % 0 mm
16:59 -12.8 °C -17.6 °C 34875.8 hPa Calm   3.1 km/h 55 % 0 mm
17:03 -12.9 °C -17.7 °C 34875.8 hPa NNE 6.8 km/h 6.8 km/h 55 % 0 mm
17:04 -12.9 °C -17.7 °C 34875.8 hPa NNE 6 km/h 6 km/h 55 % 0 mm
17:08 -13 °C -17.6 °C 34875.8 hPa West 3.1 km/h 3.1 km/h 56 % 0 mm
17:10 -13 °C -17.6 °C 34875.8 hPa Calm   3.1 km/h 56 % 0 mm
17:15 -13.1 °C -17.7 °C 34875.8 hPa NNE 6 km/h 6 km/h 56 % 0 mm
17:16 -13.2 °C -17.8 °C 34875.8 hPa North 3.1 km/h   56 % 0 mm
17:21 -13.2 °C -17.8 °C 34875.8 hPa NE 6 km/h 6 km/h 56 % 0 mm
17:23 -13.2 °C -17.8 °C 34875.8 hPa North 3.1 km/h 3.7 km/h 56 % 0 mm
17:28 -13.3 °C -17.9 °C 34899.5 hPa ENE 8 km/h 8 km/h 56 % 0 mm
17:31 -13.4 °C -17.9 °C 34899.5 hPa WNW 4.2 km/h   56 % 0 mm
17:33 -13.4 °C -17.9 °C 34899.5 hPa West 6 km/h 6 km/h 56 % 0 mm
17:38 -13.4 °C -17.9 °C 34899.5 hPa NW 3.1 km/h   57 % 0 mm
17:43 -13.5 °C -17.9 °C 34899.5 hPa WNW 3.7 km/h 3.7 km/h 57 % 0 mm
17:44 -13.5 °C -17.9 °C 34899.5 hPa WNW 3.7 km/h 3.7 km/h 57 % 0 mm
17:49 -13.6 °C -18 °C 34899.5 hPa NW 3.7 km/h   57 % 0 mm
17:54 -13.6 °C -18.1 °C 34899.5 hPa ENE 4.2 km/h   57 % 0 mm
17:55 -13.6 °C -18.1 °C 34899.5 hPa ENE 3.1 km/h 3.7 km/h 57 % 0 mm
18:00 -13.7 °C -18.1 °C 34899.5 hPa North 3.7 km/h   57 % 0 mm
18:01 -13.7 °C -17.9 °C 34899.5 hPa North 3.1 km/h   58 % 0 mm
18:07 -13.7 °C -18 °C 34899.5 hPa NW 3.1 km/h 3.1 km/h 58 % 0 mm
18:08 -13.7 °C -18 °C 34899.5 hPa NW 3.7 km/h   58 % 0 mm
18:12 -13.7 °C -18 °C 34899.5 hPa WNW 6 km/h 6 km/h 58 % 0 mm
18:17 -13.7 °C -18 °C 34899.5 hPa Calm     58 % 0 mm
18:18 -13.7 °C -18 °C 34899.5 hPa Calm     58 % 0 mm
18:20 -14.2 °C -17.7 °C 35001.1 hPa Calm     64 % 0 mm
18:23 -13.7 °C -17.9 °C 34899.5 hPa NE 3.1 km/h   58 % 0 mm
18:24 -13.7 °C -17.9 °C 34899.5 hPa NNE 3.1 km/h   58 % 0 mm
18:26 -13.7 °C -17.9 °C 34946.9 hPa ENE 4.2 km/h 4.2 km/h 58 % 0 mm
18:28 -13.7 °C -17.8 °C 34946.9 hPa North 3.1 km/h 3.1 km/h 59 % 0 mm
18:30 -14.2 °C -17.7 °C 35001.1 hPa SW 2.6 km/h 5.1 km/h 64 % 0 mm
18:33 -13.7 °C -17.8 °C 34946.9 hPa WSW 3.1 km/h 3.1 km/h 59 % 0 mm
18:34 -13.7 °C -17.9 °C 34946.9 hPa WSW 4.2 km/h   59 % 0 mm
18:37 -13.7 °C -17.9 °C 34946.9 hPa WSW 4.2 km/h 4.2 km/h 59 % 0 mm
18:40 -14.2 °C -17.7 °C 35001.1 hPa Calm   5.1 km/h 64 % 0 mm
18:41 -13.7 °C -17.9 °C 34946.9 hPa WSW 3.1 km/h 4.2 km/h 59 % 0 mm
18:44 -13.7 °C -17.9 °C 34946.9 hPa WSW 3.7 km/h 3.7 km/h 59 % 0 mm
18:47 -13.7 °C -17.9 °C 34946.9 hPa WSW 6 km/h 6 km/h 59 % 0 mm
18:52 -13.7 °C -17.9 °C 34946.9 hPa WSW 6 km/h 6 km/h 59 % 0 mm
18:57 -13.7 °C -17.9 °C 34946.9 hPa SW 6 km/h 6 km/h 59 % 0 mm
18:58 -13.7 °C -17.9 °C 34946.9 hPa Calm     59 % 0 mm
19:00 -14.3 °C -17.8 °C 35001.1 hPa WNW 2.6 km/h 5.1 km/h 64 % 0 mm
19:03 -13.7 °C -17.9 °C 34946.9 hPa Calm     59 % 0 mm
19:04 -13.7 °C -17.9 °C 34946.9 hPa Calm     59 % 0 mm
19:09 -13.7 °C -17.9 °C 34946.9 hPa SW 3.1 km/h   59 % 0 mm
19:10 -13.7 °C -17.9 °C 34946.9 hPa SW 3.1 km/h   59 % 0 mm
19:14 -13.7 °C -17.9 °C 34946.9 hPa SW 5.1 km/h   59 % 0 mm
19:17 -13.7 °C -17.9 °C 34946.9 hPa SW 6.3 km/h 6.3 km/h 59 % 0 mm
19:20 -14.4 °C -17.8 °C 35001.1 hPa Calm   2.6 km/h 65 % 0 mm
19:22 -13.8 °C -17.9 °C 34946.9 hPa Calm     59 % 0 mm
19:23 -13.8 °C -17.9 °C 34946.9 hPa WSW 4.2 km/h   59 % 0 mm
19:28 -13.8 °C -18 °C 34946.9 hPa WSW 6.3 km/h 6.3 km/h 59 % 0 mm
19:30 -14.4 °C -17.8 °C 35001.1 hPa Calm   2.6 km/h 65 % 0 mm
19:33 -13.8 °C -17.9 °C 34946.9 hPa SW 6 km/h   60 % 0 mm
19:38 -13.9 °C -17.9 °C 34946.9 hPa SW 6 km/h 6 km/h 60 % 0 mm
19:39 -13.9 °C -17.9 °C 34946.9 hPa SW 6 km/h 6 km/h 60 % 0 mm
19:40 -14.4 °C -17.8 °C 35001.1 hPa North 2.6 km/h 5.1 km/h 65 % 0 mm
19:44 -13.9 °C -17.9 °C 34946.9 hPa SW 3.7 km/h 3.7 km/h 60 % 0 mm
19:49 -13.9 °C -17.9 °C 34946.9 hPa SW 3.1 km/h 3.1 km/h 60 % 0 mm
19:50 -13.9 °C -17.9 °C 34946.9 hPa SW 2.6 km/h 5.1 km/h 60 % 0 mm
19:55 -13.9 °C -17.9 °C 34946.9 hPa SW 5.1 km/h 7.7 km/h 60 % 0 mm
19:58 -13.9 °C -17.9 °C 34946.9 hPa Calm     60 % 0 mm
20:00 -13.9 °C -17.9 °C 34946.9 hPa WSW 3.1 km/h   60 % 0 mm
20:05 -13.9 °C -17.9 °C 34946.9 hPa WSW 6 km/h 6 km/h 60 % 0 mm
20:06 -13.9 °C -17.9 °C 34946.9 hPa WSW 6 km/h 6 km/h 60 % 0 mm
20:10 -14.4 °C -17.7 °C 34967.2 hPa Calm     66 % 0 mm
20:11 -14 °C -17.9 °C 34946.9 hPa WSW 3.1 km/h 3.1 km/h 61 % 0 mm
20:12 -14 °C -17.9 °C 34946.9 hPa WSW 3.1 km/h 3.1 km/h 61 % 0 mm
20:17 -14 °C -17.9 °C 34946.9 hPa SW 3.1 km/h 3.1 km/h 61 % 0 mm
20:20 -14.4 °C -17.7 °C 34967.2 hPa SSW 2.6 km/h 5.1 km/h 66 % 0 mm
20:22 -14 °C -17.9 °C 34946.9 hPa SW 3.1 km/h   61 % 0 mm
20:23 -14 °C -17.9 °C 34946.9 hPa SW 4.2 km/h 4.2 km/h 61 % 0 mm
20:28 -14 °C -17.9 °C 34946.9 hPa SW 3.1 km/h   61 % 0 mm
20:29 -14 °C -17.9 °C 34946.9 hPa SW 3.7 km/h 3.7 km/h 61 % 0 mm
20:30 -14.4 °C -17.7 °C 34967.2 hPa Calm     66 % 0 mm
20:34 -14 °C -17.9 °C 34946.9 hPa SW 6 km/h 6 km/h 61 % 0 mm
20:35 -14 °C -17.9 °C 34946.9 hPa SW 6.3 km/h 6.3 km/h 61 % 0 mm
20:40 -14 °C -17.9 °C 34946.9 hPa SW 3.1 km/h 3.1 km/h 61 % 0 mm
20:41 -14.1 °C -17.9 °C 34946.9 hPa SW 3.1 km/h   61 % 0 mm
20:43 -14.1 °C -17.9 °C 34946.9 hPa WSW 3.1 km/h   61 % 0 mm
20:46 -14.1 °C -17.9 °C 34946.9 hPa Calm     61 % 0 mm
20:50 -14.5 °C -17.8 °C 35001.1 hPa Calm   5.1 km/h 66 % 0 mm
20:51 -14.1 °C -17.9 °C 34946.9 hPa Calm     61 % 0 mm
20:56 -14.1 °C -17.9 °C 34946.9 hPa Calm     61 % 0 mm
20:58 -14.1 °C -17.9 °C 34946.9 hPa Calm     62 % 0 mm
21:03 -14.1 °C -17.8 °C 34946.9 hPa SW 3.1 km/h   62 % 0 mm
21:04 -14.1 °C -17.8 °C 34946.9 hPa SW 4.2 km/h   62 % 0 mm
21:09 -14.1 °C -17.8 °C 34946.9 hPa WSW 3.1 km/h   62 % 0 mm
21:10 -14.6 °C -17.8 °C 35001.1 hPa Calm   2.6 km/h 66 % 0 mm
21:14 -14.1 °C -17.9 °C 34946.9 hPa Calm     62 % 0 mm
21:19 -14.1 °C -17.9 °C 34946.9 hPa Calm     62 % 0 mm
21:20 -14.1 °C -17.9 °C 34946.9 hPa Calm     62 % 0 mm
21:25 -14.1 °C -17.9 °C 34946.9 hPa Calm     62 % 0 mm
21:26 -14.1 °C -17.9 °C 34946.9 hPa Calm     62 % 0 mm
21:27 -14.1 °C -17.9 °C 34946.9 hPa Calm     62 % 0 mm
21:32 -14.1 °C -17.9 °C 34946.9 hPa Calm     62 % 0 mm
21:37 -14.1 °C -17.9 °C 34946.9 hPa Calm     62 % 0 mm
21:38 -14.1 °C -17.9 °C 34946.9 hPa Calm     62 % 0 mm
21:43 -14.1 °C -17.9 °C 34946.9 hPa Calm     62 % 0 mm
21:45 -14.1 °C -17.9 °C 34946.9 hPa SW 3.7 km/h   62 % 0 mm
21:47 -14.1 °C -17.9 °C 34946.9 hPa SSW 3.1 km/h   62 % 0 mm
21:50 -14.2 °C -17.8 °C 34946.9 hPa SSW 6 km/h 6 km/h 63 % 0 mm
21:53 -14.2 °C -17.9 °C 34946.9 hPa Calm     62 % 0 mm
21:55 -14.7 °C -17.9 °C 35001.1 hPa Calm   2.6 km/h 66 % 0 mm
21:58 -14.2 °C -17.8 °C 34946.9 hPa SSW 3.7 km/h 3.7 km/h 63 % 0 mm
22:03 -14.2 °C -17.9 °C 34946.9 hPa SW 6.8 km/h 6.8 km/h 62 % 0 mm
22:05 -14.7 °C -17.9 °C 35001.1 hPa Calm   2.6 km/h 66 % 0 mm
22:07 -14.2 °C -17.9 °C 34946.9 hPa WSW 6 km/h 6 km/h 62 % 0 mm
22:09 -14.3 °C -18 °C 34946.9 hPa SW 6.3 km/h 6.3 km/h 62 % 0 mm
22:14 -14.3 °C -17.9 °C 34967.2 hPa SW 5.6 km/h 5.6 km/h 63 % 0 mm
22:15 -14.3 °C -17.9 °C 34967.2 hPa SW 6 km/h 6 km/h 63 % 0 mm
22:20 -14.2 °C -17.8 °C 34967.2 hPa West 6 km/h 6 km/h 63 % 0 mm
22:23 -14.2 °C -17.8 °C 34967.2 hPa WSW 6.3 km/h 6.3 km/h 63 % 0 mm
22:25 -14.2 °C -17.8 °C 34967.2 hPa SW 9 km/h 9 km/h 63 % 0 mm
22:30 -14.2 °C -17.8 °C 34967.2 hPa WSW 6 km/h 6 km/h 63 % 0 mm
22:31 -14.2 °C -17.8 °C 34967.2 hPa WSW 6 km/h 6 km/h 63 % 0 mm
22:35 -14.9 °C -18.2 °C 35001.1 hPa Calm   5.1 km/h 66 % 0 mm
22:36 -14.2 °C -17.8 °C 34967.2 hPa SW 3.1 km/h 3.7 km/h 63 % 0 mm
22:41 -14.2 °C -17.8 °C 34967.2 hPa Calm     63 % 0 mm
22:42 -14.2 °C -17.8 °C 34967.2 hPa Calm     63 % 0 mm
22:45 -14.9 °C -18.1 °C 35001.1 hPa WSW 2.6 km/h 2.6 km/h 67 % 0 mm
22:47 -14.2 °C -17.8 °C 34967.2 hPa WSW 3.7 km/h   63 % 0 mm
22:50 -14.2 °C -17.8 °C 34967.2 hPa SW 6 km/h 6 km/h 63 % 0 mm
22:53 -14.2 °C -17.8 °C 34967.2 hPa WSW 6 km/h 6 km/h 63 % 0 mm
22:55 -15 °C -18.1 °C 35001.1 hPa WSW 2.6 km/h 5.1 km/h 67 % 0 mm
22:58 -14.2 °C -17.8 °C 34967.2 hPa SW 3.1 km/h 3.1 km/h 63 % 0 mm
23:00 -14.2 °C -17.8 °C 34967.2 hPa Calm   5.1 km/h 63 % 0 mm
23:05 -14.2 °C -17.8 °C 34967.2 hPa Calm     63 % 0 mm
23:10 -14.2 °C -17.8 °C 34967.2 hPa Calm     63 % 0 mm
23:11 -14.2 °C -17.8 °C 34967.2 hPa Calm     63 % 0 mm
23:15 -15.1 °C -18.2 °C 35001.1 hPa WSW 5.1 km/h 5.1 km/h 67 % 0 mm
23:16 -14.2 °C -17.8 °C 34967.2 hPa Calm     63 % 0 mm
23:17 -14.2 °C -17.8 °C 34967.2 hPa Calm     63 % 0 mm
23:22 -14.2 °C -17.8 °C 34967.2 hPa SW 3.7 km/h   63 % 0 mm
23:25 -15.1 °C -18.2 °C 35001.1 hPa Calm   5.1 km/h 67 % 0 mm
23:27 -14.3 °C -17.9 °C 35001.1 hPa WSW 3.7 km/h 3.7 km/h 63 % 0 mm
23:28 -14.3 °C -17.9 °C 35001.1 hPa WSW 3.7 km/h 3.7 km/h 63 % 0 mm
23:32 -14.3 °C -17.9 °C 35001.1 hPa West 5.6 km/h   63 % 0 mm
23:33 -14.2 °C -17.8 °C 35001.1 hPa West 6 km/h 6 km/h 63 % 0 mm
23:35 -15.1 °C -18.1 °C 35001.1 hPa Calm   5.1 km/h 68 % 0 mm
23:37 -14.2 °C -17.8 °C 35001.1 hPa WSW 4.2 km/h 4.2 km/h 63 % 0 mm
23:39 -14.2 °C -17.8 °C 35001.1 hPa WSW 3.1 km/h   63 % 0 mm
23:44 -14.2 °C -17.8 °C 34967.2 hPa SW 3.7 km/h 3.7 km/h 63 % 0 mm
23:45 -15.1 °C -18.1 °C 35001.1 hPa Calm     68 % 0 mm
23:49 -14.3 °C -17.8 °C 34967.2 hPa SW 5.1 km/h 5.1 km/h 64 % 0 mm
23:50 -14.3 °C -17.8 °C 34967.2 hPa WSW 6 km/h 6 km/h 64 % 0 mm
23:54 -14.3 °C -17.8 °C 34967.2 hPa Calm     64 % 0 mm
23:55 -15.1 °C -18.1 °C 35001.1 hPa Calm   2.6 km/h 68 % 0 mm
23:59 -14.3 °C -17.8 °C 34967.2 hPa Calm     64 % 0 mm
Meteo Sesrovires
Elogis d' Weather Underground - 2 mb

Guio original per  Jim McMurry - jmcmurry@mwt.net Adaptat per a la plantilla per  Wim van der Kuil - Leuven-Template.eu

Trobareu la nostra informacio del temps tambe a:

Weather Underground

AWEKAS